Time,TemperatureF,DewpointF,PressureIn,WindDirection,WindDirectionDegrees,WindSpeedMPH,WindSpeedGustMPH,Humidity,HourlyPrecipIn,Conditions,Clouds,dailyrainin,SoftwareType,DateUTC
2013-03-20 00:02:00,35.1,31.2,29.56,WSW,248,6.3,7.4,86,0.00,,,0.00,WUHU216HW,2013-03-19 23:02:00,
2013-03-20 00:07:00,34.9,31.1,29.57,WSW,248,5.4,7.4,86,0.00,,,0.00,WUHU216HW,2013-03-19 23:07:00,
2013-03-20 00:12:00,34.9,31.1,29.56,SW,225,4.7,6.9,86,0.00,,,0.00,WUHU216HW,2013-03-19 23:12:00,
2013-03-20 00:17:00,34.9,31.1,29.57,WSW,248,6.9,8.5,86,0.00,,,0.00,WUHU216HW,2013-03-19 23:17:00,
2013-03-20 00:22:00,34.9,31.1,29.57,SW,225,6.3,8.5,86,0.00,,,0.00,WUHU216HW,2013-03-19 23:22:00,
2013-03-20 00:27:00,34.9,31.1,29.57,WSW,248,6.7,8.9,86,0.00,,,0.00,WUHU216HW,2013-03-19 23:27:00,
2013-03-20 00:32:00,35.1,31.2,29.57,WSW,248,7.2,8.9,86,0.00,,,0.00,WUHU216HW,2013-03-19 23:32:00,
2013-03-20 00:37:00,35.1,31.2,29.57,WSW,248,5.8,8.5,86,0.00,,,0.00,WUHU216HW,2013-03-19 23:37:00,
2013-03-20 00:42:00,34.9,31.1,29.57,WSW,248,5.1,7.6,86,0.00,,,0.00,WUHU216HW,2013-03-19 23:42:00,
2013-03-20 00:47:00,35.1,31.2,29.58,WSW,248,5.8,7.4,86,0.00,,,0.00,WUHU216HW,2013-03-19 23:47:00,
2013-03-20 00:52:00,34.9,31.1,29.58,WSW,248,6.5,7.4,86,0.00,,,0.00,WUHU216HW,2013-03-19 23:52:00,
2013-03-20 00:57:00,34.9,31.1,29.58,WSW,248,6.7,7.2,86,0.00,,,0.00,WUHU216HW,2013-03-19 23:57:00,
2013-03-20 01:02:00,34.9,31.1,29.58,WSW,248,6.5,7.2,86,0.00,,,0.00,WUHU216HW,2013-03-20 00:02:00,
2013-03-20 01:07:00,34.9,31.1,29.58,WSW,248,6.0,7.6,86,0.00,,,0.00,WUHU216HW,2013-03-20 00:07:00,
2013-03-20 01:13:00,34.9,31.1,29.58,WSW,248,5.6,7.6,86,0.00,,,0.00,WUHU216HW,2013-03-20 00:13:00,
2013-03-20 01:18:00,34.9,31.1,29.58,WSW,248,8.1,9.2,86,0.00,,,0.00,WUHU216HW,2013-03-20 00:18:00,
2013-03-20 01:22:00,34.9,31.3,29.58,WSW,248,5.4,9.2,87,0.00,,,0.00,WUHU216HW,2013-03-20 00:22:00,
2013-03-20 01:28:00,34.9,31.3,29.59,SW,225,7.8,9.2,87,0.00,,,0.00,WUHU216HW,2013-03-20 00:28:00,
2013-03-20 01:33:00,34.9,31.3,29.58,SW,225,7.6,9.2,87,0.00,,,0.00,WUHU216HW,2013-03-20 00:33:00,
2013-03-20 01:38:00,34.9,31.3,29.59,WSW,248,6.9,8.7,87,0.00,,,0.00,WUHU216HW,2013-03-20 00:38:00,
2013-03-20 01:42:00,34.9,31.3,29.58,WSW,248,6.5,8.1,87,0.00,,,0.00,WUHU216HW,2013-03-20 00:42:00,
2013-03-20 01:47:00,34.9,31.3,29.58,WSW,248,6.7,8.1,87,0.00,,,0.00,WUHU216HW,2013-03-20 00:47:00,
2013-03-20 01:52:00,34.7,31.1,29.59,WSW,248,6.9,7.2,87,0.00,,,0.00,WUHU216HW,2013-03-20 00:52:00,
2013-03-20 01:57:00,34.7,31.1,29.59,WSW,248,6.9,8.7,87,0.00,,,0.00,WUHU216HW,2013-03-20 00:57:00,
2013-03-20 02:03:00,34.9,31.3,29.59,SW,225,5.4,8.7,87,0.00,,,0.00,WUHU216HW,2013-03-20 01:03:00,
2013-03-20 02:08:00,34.9,31.3,29.59,WSW,248,6.3,8.9,87,0.00,,,0.00,WUHU216HW,2013-03-20 01:08:00,
2013-03-20 02:13:00,34.9,31.3,29.60,WSW,248,7.2,7.8,87,0.00,,,0.00,WUHU216HW,2013-03-20 01:13:00,
2013-03-20 02:18:00,34.9,31.3,29.60,WSW,248,6.9,8.3,87,0.00,,,0.00,WUHU216HW,2013-03-20 01:18:00,
2013-03-20 02:23:00,34.9,31.7,29.60,WSW,248,5.8,8.3,88,0.00,,,0.00,WUHU216HW,2013-03-20 01:23:00,
2013-03-20 02:28:00,34.9,31.7,29.59,SW,225,4.9,9.4,88,0.00,,,0.00,WUHU216HW,2013-03-20 01:28:00,
2013-03-20 02:33:00,34.9,31.7,29.60,WSW,248,6.0,9.4,88,0.00,,,0.00,WUHU216HW,2013-03-20 01:33:00,
2013-03-20 02:38:00,35.1,31.9,29.60,WSW,248,6.5,9.4,88,0.00,,,0.00,WUHU216HW,2013-03-20 01:38:00,
2013-03-20 02:43:00,35.1,31.9,29.59,West,270,6.9,9.4,88,0.00,,,0.00,WUHU216HW,2013-03-20 01:43:00,
2013-03-20 02:48:00,35.1,31.9,29.60,WSW,248,7.2,10.5,88,0.00,,,0.00,WUHU216HW,2013-03-20 01:48:00,
2013-03-20 02:53:00,35.1,31.9,29.60,WSW,248,7.6,10.5,88,0.00,,,0.00,WUHU216HW,2013-03-20 01:53:00,
2013-03-20 02:58:00,35.1,31.9,29.60,WSW,248,8.1,8.5,88,0.00,,,0.00,WUHU216HW,2013-03-20 01:58:00,
2013-03-20 03:03:00,35.3,32.1,29.60,WSW,248,6.3,8.1,88,0.00,,,0.00,WUHU216HW,2013-03-20 02:03:00,
2013-03-20 03:08:00,35.3,32.1,29.60,WSW,248,6.3,8.1,88,0.00,,,0.00,WUHU216HW,2013-03-20 02:08:00,
2013-03-20 03:13:00,35.3,32.1,29.60,SW,225,5.4,6.7,88,0.00,,,0.00,WUHU216HW,2013-03-20 02:13:00,
2013-03-20 03:18:00,35.3,32.1,29.60,WSW,248,4.7,8.1,88,0.00,,,0.00,WUHU216HW,2013-03-20 02:18:00,
2013-03-20 03:23:00,35.3,32.1,29.60,WSW,248,2.9,8.1,88,0.00,,,0.00,WUHU216HW,2013-03-20 02:23:00,
2013-03-20 03:28:00,35.3,32.1,29.60,WSW,248,0.9,4.7,88,0.00,,,0.00,WUHU216HW,2013-03-20 02:28:00,
2013-03-20 03:33:00,35.1,31.5,29.60,NNE,23,1.1,3.4,87,0.00,,,0.00,WUHU216HW,2013-03-20 02:33:00,
2013-03-20 03:38:00,34.9,31.3,29.61,East,90,0.4,1.3,87,0.00,,,0.00,WUHU216HW,2013-03-20 02:38:00,
2013-03-20 03:43:00,34.7,31.1,29.61,SE,135,1.1,1.1,87,0.00,,,0.00,WUHU216HW,2013-03-20 02:43:00,
2013-03-20 03:48:00,34.6,31.0,29.60,SE,135,0.9,1.6,87,0.00,,,0.00,WUHU216HW,2013-03-20 02:48:00,
2013-03-20 03:53:00,34.2,30.6,29.61,ESE,113,2.2,2.5,87,0.00,,,0.00,WUHU216HW,2013-03-20 02:53:00,
2013-03-20 03:58:00,34.0,30.8,29.60,SE,135,2.9,2.9,88,0.00,,,0.00,WUHU216HW,2013-03-20 02:58:00,
2013-03-20 04:03:00,33.7,30.4,29.61,SE,135,1.6,2.9,88,0.00,,,0.00,WUHU216HW,2013-03-20 03:03:00,
2013-03-20 04:08:00,33.5,30.2,29.61,SE,135,1.1,2.9,88,0.00,,,0.00,WUHU216HW,2013-03-20 03:08:00,
2013-03-20 04:13:00,33.3,30.1,29.61,SSE,158,1.6,1.8,88,0.00,,,0.00,WUHU216HW,2013-03-20 03:13:00,
2013-03-20 04:18:00,33.1,29.9,29.61,SE,135,1.8,2.2,88,0.00,,,0.00,WUHU216HW,2013-03-20 03:18:00,
2013-03-20 04:23:00,33.1,29.9,29.61,SE,135,0.9,2.2,88,0.00,,,0.00,WUHU216HW,2013-03-20 03:23:00,
2013-03-20 04:28:00,32.9,29.8,29.62,SSE,158,1.1,1.8,88,0.00,,,0.00,WUHU216HW,2013-03-20 03:28:00,
2013-03-20 04:33:00,32.8,29.6,29.62,SE,135,1.6,1.8,88,0.00,,,0.00,WUHU216HW,2013-03-20 03:33:00,
2013-03-20 04:39:00,32.8,29.6,29.62,SE,135,0.9,1.8,88,0.00,,,0.00,WUHU216HW,2013-03-20 03:39:00,
2013-03-20 04:44:00,32.8,29.6,29.62,SE,135,0.7,1.8,88,0.00,,,0.00,WUHU216HW,2013-03-20 03:44:00,
2013-03-20 04:49:00,32.8,29.9,29.62,ESE,113,0.0,1.1,89,0.00,,,0.00,WUHU216HW,2013-03-20 03:49:00,
2013-03-20 04:54:00,32.8,29.9,29.62,ENE,68,0.0,0.9,89,0.00,,,0.00,WUHU216HW,2013-03-20 03:54:00,
2013-03-20 04:59:00,32.8,29.9,29.62,SE,135,0.9,1.3,89,0.00,,,0.00,WUHU216HW,2013-03-20 03:59:00,
2013-03-20 05:00:00,32.8,29.9,29.62,SE,135,0.7,1.3,89,0.00,,,0.00,WUHU216HW,2013-03-20 04:00:00,
2013-03-20 05:05:00,32.8,29.9,29.62,SE,135,1.1,1.3,89,0.00,,,0.00,WUHU216HW,2013-03-20 04:05:00,
2013-03-20 05:11:00,32.9,30.1,29.62,SSE,158,1.1,1.3,89,0.00,,,0.00,WUHU216HW,2013-03-20 04:11:00,
2013-03-20 05:16:00,33.1,30.3,29.62,East,90,0.2,1.3,89,0.00,,,0.00,WUHU216HW,2013-03-20 04:16:00,
2013-03-20 05:21:00,33.3,30.3,29.62,SE,135,0.7,1.1,89,0.00,,,0.00,WUHU216HW,2013-03-20 04:21:00,
2013-03-20 05:26:00,33.3,30.3,29.62,SE,135,0.7,1.1,89,0.00,,,0.00,WUHU216HW,2013-03-20 04:26:00,
2013-03-20 05:31:00,33.3,30.7,29.62,SE,135,0.0,1.1,90,0.00,,,0.00,WUHU216HW,2013-03-20 04:31:00,
2013-03-20 05:36:00,33.5,30.8,29.62,SE,135,0.7,0.7,90,0.00,,,0.00,WUHU216HW,2013-03-20 04:36:00,
2013-03-20 05:41:00,33.5,30.8,29.63,SE,135,0.0,0.7,90,0.00,,,0.00,WUHU216HW,2013-03-20 04:41:00,
2013-03-20 05:47:00,33.5,30.8,29.62,SE,135,1.3,1.6,90,0.00,,,0.00,WUHU216HW,2013-03-20 04:47:00,
2013-03-20 05:52:00,33.5,30.8,29.63,SSE,158,0.4,1.6,90,0.00,,,0.00,WUHU216HW,2013-03-20 04:52:00,
2013-03-20 05:57:00,33.5,30.8,29.63,SSE,158,0.2,1.1,90,0.00,,,0.00,WUHU216HW,2013-03-20 04:57:00,
2013-03-20 06:02:00,33.7,31.0,29.63,ESE,113,0.2,1.1,90,0.00,,,0.00,WUHU216HW,2013-03-20 05:02:00,
2013-03-20 06:07:00,33.7,31.0,29.63,SE,135,0.0,1.3,90,0.00,,,0.00,WUHU216HW,2013-03-20 05:07:00,
2013-03-20 06:12:00,33.8,31.1,29.64,ESE,113,0.4,1.3,90,0.00,,,0.00,WUHU216HW,2013-03-20 05:12:00,
2013-03-20 06:17:00,33.8,31.1,29.64,North,0,1.8,3.1,90,0.00,,,0.00,WUHU216HW,2013-03-20 05:17:00,
2013-03-20 06:22:00,34.0,31.3,29.64,WSW,248,1.6,3.4,90,0.00,,,0.00,WUHU216HW,2013-03-20 05:22:00,
2013-03-20 06:27:00,34.2,31.5,29.64,WSW,248,0.4,3.4,90,0.00,,,0.00,WUHU216HW,2013-03-20 05:27:00,
2013-03-20 06:32:00,34.2,31.5,29.64,WSW,248,0.4,1.8,90,0.00,,,0.00,WUHU216HW,2013-03-20 05:32:00,
2013-03-20 06:37:00,34.2,31.5,29.64,WSW,248,0.4,1.1,90,0.00,,,0.00,WUHU216HW,2013-03-20 05:37:00,
2013-03-20 06:42:00,34.2,31.5,29.64,SSW,203,1.3,1.3,90,0.00,,,0.00,WUHU216HW,2013-03-20 05:42:00,
2013-03-20 06:47:00,34.4,31.7,29.64,WSW,248,1.3,1.3,90,0.00,,,0.00,WUHU216HW,2013-03-20 05:47:00,
2013-03-20 06:52:00,34.6,31.6,29.64,WSW,248,1.3,1.6,89,0.00,,,0.00,WUHU216HW,2013-03-20 05:52:00,
2013-03-20 06:57:00,34.6,31.6,29.64,SW,225,1.1,1.8,89,0.00,,,0.00,WUHU216HW,2013-03-20 05:57:00,
2013-03-20 07:02:00,34.6,31.6,29.64,SSW,203,1.1,1.8,89,0.00,,,0.00,WUHU216HW,2013-03-20 06:02:00,
2013-03-20 07:07:00,34.6,31.6,29.64,SW,225,1.1,2.0,89,0.00,,,0.00,WUHU216HW,2013-03-20 06:07:00,
2013-03-20 07:12:00,34.6,31.6,29.64,SSW,203,0.9,2.0,89,0.00,,,0.00,WUHU216HW,2013-03-20 06:12:00,
2013-03-20 07:17:00,34.7,31.8,29.64,SW,225,1.1,1.3,89,0.00,,,0.00,WUHU216HW,2013-03-20 06:17:00,
2013-03-20 07:22:00,34.9,32.0,29.65,SSW,203,1.1,1.8,89,0.00,,,0.00,WUHU216HW,2013-03-20 06:22:00,
2013-03-20 07:27:00,35.1,32.1,29.65,SW,225,1.1,1.8,89,0.00,,,0.00,WUHU216HW,2013-03-20 06:27:00,
2013-03-20 07:32:00,35.3,32.3,29.65,SW,225,1.1,1.8,89,0.00,,,0.00,WUHU216HW,2013-03-20 06:32:00,
2013-03-20 07:37:00,35.3,32.3,29.65,WSW,248,1.3,2.0,89,0.00,,,0.00,WUHU216HW,2013-03-20 06:37:00,
2013-03-20 07:42:00,35.5,32.5,29.65,WSW,248,1.1,2.0,89,0.00,,,0.00,WUHU216HW,2013-03-20 06:42:00,
2013-03-20 07:47:00,35.6,32.7,29.65,WSW,248,0.4,1.8,89,0.00,,,0.00,WUHU216HW,2013-03-20 06:47:00,
2013-03-20 07:52:00,35.8,32.9,29.65,WSW,248,1.1,1.3,89,0.00,,,0.00,WUHU216HW,2013-03-20 06:52:00,
2013-03-20 07:58:00,36.0,33.0,29.65,WSW,248,1.8,1.8,89,0.00,,,0.00,WUHU216HW,2013-03-20 06:58:00,
2013-03-20 08:03:00,36.2,33.2,29.65,WSW,248,1.8,1.8,89,0.00,,,0.00,WUHU216HW,2013-03-20 07:03:00,
2013-03-20 08:08:00,36.4,33.4,29.65,WSW,248,1.6,2.0,89,0.00,,,0.00,WUHU216HW,2013-03-20 07:08:00,
2013-03-20 08:12:00,36.4,33.4,29.65,WSW,248,1.8,2.5,89,0.00,,,0.00,WUHU216HW,2013-03-20 07:12:00,
2013-03-20 08:17:00,36.5,33.6,29.66,SW,225,1.1,2.5,89,0.00,,,0.00,WUHU216HW,2013-03-20 07:17:00,
2013-03-20 08:22:00,36.7,33.5,29.66,WSW,248,1.8,2.0,88,0.00,,,0.00,WUHU216HW,2013-03-20 07:22:00,
2013-03-20 08:27:00,37.1,33.9,29.66,WSW,248,1.3,2.5,88,0.00,,,0.00,WUHU216HW,2013-03-20 07:27:00,
2013-03-20 08:32:00,37.1,33.9,29.66,WSW,248,1.3,2.5,88,0.00,,,0.00,WUHU216HW,2013-03-20 07:32:00,
2013-03-20 08:37:00,37.4,34.5,29.66,WSW,248,1.8,2.0,89,0.00,,,0.00,WUHU216HW,2013-03-20 07:37:00,
2013-03-20 08:43:00,37.8,34.6,29.66,WSW,248,3.1,3.4,88,0.00,,,0.00,WUHU216HW,2013-03-20 07:43:00,
2013-03-20 08:48:00,38.2,34.9,29.66,WSW,248,2.9,3.4,88,0.00,,,0.00,WUHU216HW,2013-03-20 07:48:00,
2013-03-20 08:53:00,38.5,34.9,29.66,NW,315,3.6,5.1,87,0.00,,,0.00,WUHU216HW,2013-03-20 07:53:00,
2013-03-20 08:58:00,38.7,34.8,29.66,West,270,2.9,5.1,86,0.00,,,0.00,WUHU216HW,2013-03-20 07:58:00,
2013-03-20 09:03:00,38.9,35.0,29.66,West,270,4.7,4.7,86,0.00,,,0.00,WUHU216HW,2013-03-20 08:03:00,
2013-03-20 09:08:00,39.1,34.9,29.66,West,270,2.0,4.7,85,0.00,,,0.00,WUHU216HW,2013-03-20 08:08:00,
2013-03-20 09:13:00,39.2,35.1,29.66,West,270,1.8,4.7,85,0.00,,,0.00,WUHU216HW,2013-03-20 08:13:00,
2013-03-20 09:18:00,39.6,35.5,29.66,WNW,293,1.1,2.5,85,0.00,,,0.00,WUHU216HW,2013-03-20 08:18:00,
2013-03-20 09:23:00,39.8,35.7,29.66,West,270,2.0,2.5,85,0.00,,,0.00,WUHU216HW,2013-03-20 08:23:00,
2013-03-20 09:28:00,40.1,35.6,29.66,West,270,1.8,2.5,84,0.00,,,0.00,WUHU216HW,2013-03-20 08:28:00,
2013-03-20 09:33:00,40.3,35.8,29.66,WSW,248,0.7,2.5,84,0.00,,,0.00,WUHU216HW,2013-03-20 08:33:00,
2013-03-20 09:38:00,40.7,36.2,29.67,WSW,248,0.9,1.8,84,0.00,,,0.00,WUHU216HW,2013-03-20 08:38:00,
2013-03-20 09:43:00,40.9,36.4,29.66,West,270,0.9,1.6,84,0.00,,,0.00,WUHU216HW,2013-03-20 08:43:00,
2013-03-20 09:48:00,41.0,36.6,29.67,WNW,293,2.0,2.0,84,0.00,,,0.00,WUHU216HW,2013-03-20 08:48:00,
2013-03-20 09:53:00,41.6,36.7,29.67,West,270,1.6,2.0,83,0.00,,,0.00,WUHU216HW,2013-03-20 08:53:00,
2013-03-20 09:58:00,42.1,37.3,29.67,WSW,248,2.0,3.8,83,0.00,,,0.00,WUHU216HW,2013-03-20 08:58:00,
2013-03-20 10:03:00,42.3,37.4,29.67,WNW,293,1.8,3.8,83,0.00,,,0.00,WUHU216HW,2013-03-20 09:03:00,
2013-03-20 10:08:00,42.5,37.4,29.67,NNW,338,1.1,2.0,82,0.00,,,0.00,WUHU216HW,2013-03-20 09:08:00,
2013-03-20 10:13:00,42.7,37.5,29.67,SW,225,0.2,1.6,82,0.00,,,0.00,WUHU216HW,2013-03-20 09:13:00,
2013-03-20 10:18:00,42.8,37.4,29.67,West,270,0.9,1.3,81,0.00,,,0.00,WUHU216HW,2013-03-20 09:18:00,
2013-03-20 10:23:00,42.8,37.1,29.67,North,0,0.2,1.3,80,0.00,,,0.00,WUHU216HW,2013-03-20 09:23:00,
2013-03-20 10:28:00,42.7,36.3,29.67,ESE,113,0.4,1.6,78,0.00,,,0.00,WUHU216HW,2013-03-20 09:28:00,
2013-03-20 10:33:00,42.8,36.7,29.67,West,270,0.9,1.6,79,0.00,,,0.00,WUHU216HW,2013-03-20 09:33:00,
2013-03-20 10:38:00,43.2,37.1,29.67,WSW,248,0.9,2.5,79,0.00,,,0.00,WUHU216HW,2013-03-20 09:38:00,
2013-03-20 10:43:00,43.6,37.4,29.67,North,0,1.8,2.7,79,0.00,,,0.00,WUHU216HW,2013-03-20 09:43:00,
2013-03-20 10:48:00,44.3,37.5,29.67,NNW,338,3.4,3.4,77,0.00,,,0.00,WUHU216HW,2013-03-20 09:48:00,
2013-03-20 10:53:00,44.3,37.2,29.67,ENE,68,0.0,3.4,76,0.00,,,0.00,WUHU216HW,2013-03-20 09:53:00,
2013-03-20 10:58:00,44.3,37.2,29.66,NNE,23,2.7,3.4,76,0.00,,,0.00,WUHU216HW,2013-03-20 09:58:00,
2013-03-20 11:03:00,44.6,37.5,29.67,NNW,338,1.6,2.7,76,0.00,,,0.00,WUHU216HW,2013-03-20 10:03:00,
2013-03-20 11:08:00,45.4,38.6,29.67,SW,225,1.1,2.7,77,0.00,,,0.00,WUHU216HW,2013-03-20 10:08:00,
2013-03-20 11:13:00,46.4,39.3,29.67,SE,135,2.2,2.7,76,0.00,,,0.00,WUHU216HW,2013-03-20 10:13:00,
2013-03-20 11:18:00,47.2,40.0,29.67,SSW,203,0.7,2.5,76,0.00,,,0.00,WUHU216HW,2013-03-20 10:18:00,
2013-03-20 11:23:00,47.3,38.8,29.67,SE,135,1.1,2.2,72,0.00,,,0.00,WUHU216HW,2013-03-20 10:23:00,
2013-03-20 11:28:00,47.2,39.0,29.67,NW,315,0.4,1.8,73,0.00,,,0.00,WUHU216HW,2013-03-20 10:28:00,
2013-03-20 11:33:00,47.7,39.8,29.67,WSW,248,1.8,1.8,74,0.00,,,0.00,WUHU216HW,2013-03-20 10:33:00,
2013-03-20 11:38:00,48.4,40.8,29.67,NW,315,2.0,2.5,75,0.00,,,0.00,WUHU216HW,2013-03-20 10:38:00,
2013-03-20 11:43:00,49.3,41.3,29.67,NNW,338,2.5,2.7,74,0.00,,,0.00,WUHU216HW,2013-03-20 10:43:00,
2013-03-20 11:48:00,50.2,41.6,29.67,West,270,2.5,2.7,72,0.00,,,0.00,WUHU216HW,2013-03-20 10:48:00,
2013-03-20 11:53:00,50.4,41.4,29.67,North,0,0.4,3.4,71,0.00,,,0.00,WUHU216HW,2013-03-20 10:53:00,
2013-03-20 11:58:00,50.4,40.2,29.67,ESE,113,0.4,3.4,68,0.00,,,0.00,WUHU216HW,2013-03-20 10:58:00,
2013-03-20 12:03:00,49.7,38.8,29.68,ESE,113,1.1,1.6,66,0.00,,,0.00,WUHU216HW,2013-03-20 11:03:00,
2013-03-20 12:08:00,49.3,38.8,29.67,ESE,113,1.8,3.4,67,0.00,,,0.00,WUHU216HW,2013-03-20 11:08:00,
2013-03-20 12:13:00,49.0,37.7,29.68,ESE,113,0.7,3.4,65,0.00,,,0.00,WUHU216HW,2013-03-20 11:13:00,
2013-03-20 12:18:00,48.8,36.7,29.68,East,90,3.4,3.4,63,0.00,,,0.00,WUHU216HW,2013-03-20 11:18:00,
2013-03-20 12:23:00,48.4,37.5,29.68,ENE,68,0.4,3.4,66,0.00,,,0.00,WUHU216HW,2013-03-20 11:23:00,
2013-03-20 12:28:00,48.1,37.2,29.67,NE,45,1.8,3.4,66,0.00,,,0.00,WUHU216HW,2013-03-20 11:28:00,
2013-03-20 12:33:00,47.2,36.4,29.67,NE,45,3.4,3.4,66,0.00,,,0.00,WUHU216HW,2013-03-20 11:33:00,
2013-03-20 12:38:00,47.0,36.5,29.67,ESE,113,1.8,3.4,67,0.00,,,0.00,WUHU216HW,2013-03-20 11:38:00,
2013-03-20 12:43:00,46.6,36.6,29.67,NE,45,1.6,3.4,68,0.00,,,0.00,WUHU216HW,2013-03-20 11:43:00,
2013-03-20 12:48:00,46.4,36.5,29.67,NE,45,0.4,3.4,68,0.00,,,0.00,WUHU216HW,2013-03-20 11:48:00,
2013-03-20 12:53:00,46.4,36.5,29.67,NE,45,2.9,2.9,68,0.00,,,0.00,WUHU216HW,2013-03-20 11:53:00,
2013-03-20 12:58:00,46.6,36.6,29.67,NE,45,0.4,2.9,68,0.00,,,0.00,WUHU216HW,2013-03-20 11:58:00,
2013-03-20 13:03:00,46.8,36.8,29.67,NNE,23,1.8,2.9,68,0.00,,,0.00,WUHU216HW,2013-03-20 12:03:00,
2013-03-20 13:08:00,47.3,36.6,29.66,North,0,0.9,4.0,66,0.00,,,0.00,WUHU216HW,2013-03-20 12:08:00,
2013-03-20 13:13:00,47.9,36.6,29.67,NNE,23,3.6,4.5,65,0.00,,,0.00,WUHU216HW,2013-03-20 12:13:00,
2013-03-20 13:18:00,47.7,36.5,29.66,NE,45,1.8,4.5,65,0.00,,,0.00,WUHU216HW,2013-03-20 12:18:00,
2013-03-20 13:23:00,47.5,36.3,29.66,East,90,1.1,3.6,65,0.00,,,0.00,WUHU216HW,2013-03-20 12:23:00,
2013-03-20 13:28:00,47.5,37.1,29.66,North,0,0.7,2.9,67,0.00,,,0.00,WUHU216HW,2013-03-20 12:28:00,
2013-03-20 13:33:00,47.9,37.8,29.66,East,90,0.4,2.9,68,0.00,,,0.00,WUHU216HW,2013-03-20 12:33:00,
2013-03-20 13:38:00,48.2,38.2,29.66,SW,225,0.9,2.5,68,0.00,,,0.00,WUHU216HW,2013-03-20 12:38:00,
2013-03-20 13:43:00,48.6,38.5,29.66,SSE,158,0.0,2.5,68,0.00,,,0.00,WUHU216HW,2013-03-20 12:43:00,
2013-03-20 13:48:00,49.3,38.4,29.66,NE,45,0.4,1.1,66,0.00,,,0.00,WUHU216HW,2013-03-20 12:48:00,
2013-03-20 13:53:00,49.3,37.6,29.66,East,90,2.7,2.9,64,0.00,,,0.00,WUHU216HW,2013-03-20 12:53:00,
2013-03-20 13:58:00,49.5,36.3,29.66,East,90,1.6,2.9,60,0.00,,,0.00,WUHU216HW,2013-03-20 12:58:00,
2013-03-20 14:03:00,49.7,36.4,29.66,North,0,0.9,2.9,60,0.00,,,0.00,WUHU216HW,2013-03-20 13:03:00,
2013-03-20 14:08:00,49.5,37.0,29.66,NE,45,1.8,2.9,62,0.00,,,0.00,WUHU216HW,2013-03-20 13:08:00,
2013-03-20 14:13:00,49.5,37.5,29.66,East,90,0.2,2.5,63,0.00,,,0.00,WUHU216HW,2013-03-20 13:13:00,
2013-03-20 14:18:00,50.0,37.9,29.65,SSE,158,1.6,2.2,63,0.00,,,0.00,WUHU216HW,2013-03-20 13:18:00,
2013-03-20 14:23:00,50.2,37.7,29.65,ENE,68,1.6,2.2,62,0.00,,,0.00,WUHU216HW,2013-03-20 13:23:00,
2013-03-20 14:28:00,50.4,37.4,29.65,North,0,0.9,1.8,61,0.00,,,0.00,WUHU216HW,2013-03-20 13:28:00,
2013-03-20 14:33:00,50.2,37.7,29.65,North,0,0.2,1.6,62,0.00,,,0.00,WUHU216HW,2013-03-20 13:33:00,
2013-03-20 14:38:00,50.2,38.1,29.65,SW,225,0.4,1.1,63,0.00,,,0.00,WUHU216HW,2013-03-20 13:38:00,
2013-03-20 14:43:00,50.4,38.6,29.65,SSW,203,1.8,1.8,64,0.00,,,0.00,WUHU216HW,2013-03-20 13:43:00,
2013-03-20 14:48:00,50.6,38.8,29.65,SE,135,3.8,3.8,64,0.00,,,0.00,WUHU216HW,2013-03-20 13:48:00,
2013-03-20 14:53:00,51.1,38.5,29.65,ESE,113,0.4,3.8,62,0.00,,,0.00,WUHU216HW,2013-03-20 13:53:00,
2013-03-20 14:58:00,51.3,37.9,29.65,ESE,113,2.0,3.8,60,0.00,,,0.00,WUHU216HW,2013-03-20 13:58:00,
2013-03-20 15:03:00,51.3,36.1,29.65,ESE,113,4.9,6.0,56,0.00,,,0.00,WUHU216HW,2013-03-20 14:03:00,
2013-03-20 15:08:00,50.8,36.0,29.65,ESE,113,1.3,6.0,57,0.00,,,0.00,WUHU216HW,2013-03-20 14:08:00,
2013-03-20 15:13:00,50.6,35.8,29.65,SE,135,4.0,4.9,57,0.00,,,0.00,WUHU216HW,2013-03-20 14:13:00,
2013-03-20 15:18:00,50.2,35.1,29.65,ESE,113,1.1,4.3,56,0.00,,,0.00,WUHU216HW,2013-03-20 14:18:00,
2013-03-20 15:23:00,50.0,35.8,29.65,SE,135,1.6,4.3,58,0.00,,,0.00,WUHU216HW,2013-03-20 14:23:00,
2013-03-20 15:28:00,50.0,35.8,29.64,ESE,113,0.7,2.2,58,0.00,,,0.00,WUHU216HW,2013-03-20 14:28:00,
2013-03-20 15:33:00,49.9,36.1,29.64,SE,135,1.6,2.5,59,0.00,,,0.00,WUHU216HW,2013-03-20 14:33:00,
2013-03-20 15:38:00,50.0,36.7,29.64,NE,45,1.8,2.5,60,0.00,,,0.00,WUHU216HW,2013-03-20 14:38:00,
2013-03-20 15:44:00,50.0,36.7,29.64,ENE,68,1.3,1.8,60,0.00,,,0.00,WUHU216HW,2013-03-20 14:44:00,
2013-03-20 15:49:00,50.0,36.7,29.64,ESE,113,0.4,1.8,60,0.00,,,0.00,WUHU216HW,2013-03-20 14:49:00,
2013-03-20 15:54:00,50.0,36.7,29.63,East,90,2.0,3.1,60,0.00,,,0.00,WUHU216HW,2013-03-20 14:54:00,
2013-03-20 15:59:00,49.9,37.0,29.64,East,90,0.9,3.1,61,0.00,,,0.00,WUHU216HW,2013-03-20 14:59:00,
2013-03-20 16:04:00,49.9,36.5,29.64,ENE,68,2.9,2.9,60,0.00,,,0.00,WUHU216HW,2013-03-20 15:04:00,
2013-03-20 16:09:00,49.5,36.6,29.64,ESE,113,1.8,2.9,61,0.00,,,0.00,WUHU216HW,2013-03-20 15:09:00,
2013-03-20 16:14:00,49.3,37.3,29.64,ESE,113,0.0,2.9,63,0.00,,,0.00,WUHU216HW,2013-03-20 15:14:00,
2013-03-20 16:19:00,49.3,37.6,29.64,South,180,0.4,1.8,64,0.00,,,0.00,WUHU216HW,2013-03-20 15:19:00,
2013-03-20 16:24:00,49.3,38.0,29.64,NE,45,1.8,1.8,65,0.00,,,0.00,WUHU216HW,2013-03-20 15:24:00,
2013-03-20 16:29:00,49.1,37.8,29.64,ENE,68,0.0,1.8,65,0.00,,,0.00,WUHU216HW,2013-03-20 15:29:00,
2013-03-20 16:34:00,48.6,38.1,29.64,SE,135,0.4,2.0,67,0.00,,,0.00,WUHU216HW,2013-03-20 15:34:00,
2013-03-20 16:39:00,48.6,37.7,29.64,SE,135,0.7,2.0,66,0.00,,,0.00,WUHU216HW,2013-03-20 15:39:00,
2013-03-20 16:44:00,48.2,38.2,29.64,ENE,68,0.0,0.7,68,0.00,,,0.00,WUHU216HW,2013-03-20 15:44:00,
2013-03-20 16:49:00,47.9,37.8,29.64,East,90,0.2,0.7,68,0.00,,,0.00,WUHU216HW,2013-03-20 15:49:00,
2013-03-20 16:54:00,47.7,38.0,29.64,East,90,0.4,0.4,69,0.00,,,0.00,WUHU216HW,2013-03-20 15:54:00,
2013-03-20 16:59:00,47.9,38.2,29.64,East,90,0.4,0.4,69,0.00,,,0.00,WUHU216HW,2013-03-20 15:59:00,
2013-03-20 17:04:00,47.7,38.0,29.64,ENE,68,0.4,0.7,69,0.00,,,0.00,WUHU216HW,2013-03-20 16:04:00,
2013-03-20 17:09:00,46.6,37.5,29.64,ESE,113,0.9,1.1,70,0.00,,,0.00,WUHU216HW,2013-03-20 16:09:00,
2013-03-20 17:14:00,45.7,36.9,29.64,SE,135,1.6,2.2,71,0.00,,,0.00,WUHU216HW,2013-03-20 16:14:00,
2013-03-20 17:19:00,45.7,36.9,29.64,NE,45,1.1,3.4,71,0.00,,,0.00,WUHU216HW,2013-03-20 16:19:00,
2013-03-20 17:24:00,45.7,36.9,29.64,SE,135,0.4,3.4,71,0.00,,,0.00,WUHU216HW,2013-03-20 16:24:00,
2013-03-20 17:29:00,45.9,37.1,29.64,SE,135,0.4,1.3,71,0.00,,,0.00,WUHU216HW,2013-03-20 16:29:00,
2013-03-20 17:34:00,45.9,37.1,29.64,SE,135,0.2,0.4,71,0.00,,,0.00,WUHU216HW,2013-03-20 16:34:00,
2013-03-20 17:39:00,45.7,36.9,29.64,SE,135,0.9,1.1,71,0.00,,,0.00,WUHU216HW,2013-03-20 16:39:00,
2013-03-20 17:44:00,45.4,36.6,29.64,SE,135,1.8,1.8,71,0.00,,,0.00,WUHU216HW,2013-03-20 16:44:00,
2013-03-20 17:49:00,45.4,36.6,29.64,SSE,158,2.5,2.5,71,0.00,,,0.00,WUHU216HW,2013-03-20 16:49:00,
2013-03-20 17:54:00,44.8,36.0,29.65,SSE,158,1.8,2.5,71,0.00,,,0.00,WUHU216HW,2013-03-20 16:54:00,
2013-03-20 17:59:00,44.3,35.5,29.65,SSW,203,1.8,2.5,71,0.00,,,0.00,WUHU216HW,2013-03-20 16:59:00,
2013-03-20 18:04:00,43.6,34.8,29.65,SSE,158,1.8,2.0,71,0.00,,,0.00,WUHU216HW,2013-03-20 17:04:00,
2013-03-20 18:09:00,43.2,34.5,29.65,SSE,158,1.8,2.5,71,0.00,,,0.00,WUHU216HW,2013-03-20 17:09:00,
2013-03-20 18:14:00,42.8,34.2,29.65,SSE,158,2.0,2.5,71,0.00,,,0.00,WUHU216HW,2013-03-20 17:14:00,
2013-03-20 18:19:00,42.5,34.1,29.66,SSE,158,1.1,2.2,72,0.00,,,0.00,WUHU216HW,2013-03-20 17:19:00,
2013-03-20 18:24:00,42.3,34.3,29.66,SSW,203,1.1,1.8,73,0.00,,,0.00,WUHU216HW,2013-03-20 17:24:00,
2013-03-20 18:29:00,42.3,34.3,29.66,SW,225,0.9,2.0,73,0.00,,,0.00,WUHU216HW,2013-03-20 17:29:00,
2013-03-20 18:34:00,42.1,34.1,29.66,ESE,113,0.4,2.0,73,0.00,,,0.00,WUHU216HW,2013-03-20 17:34:00,
2013-03-20 18:39:00,41.4,33.7,29.66,ESE,113,0.0,1.1,74,0.00,,,0.00,WUHU216HW,2013-03-20 17:39:00,
2013-03-20 18:44:00,41.4,33.7,29.67,SSE,158,0.9,1.1,74,0.00,,,0.00,WUHU216HW,2013-03-20 17:44:00,
2013-03-20 18:49:00,41.2,33.8,29.67,ESE,113,0.0,1.1,75,0.00,,,0.00,WUHU216HW,2013-03-20 17:49:00,
2013-03-20 18:54:00,41.0,33.7,29.68,SSE,158,0.9,1.1,75,0.00,,,0.00,WUHU216HW,2013-03-20 17:54:00,
2013-03-20 18:59:00,41.0,34.0,29.68,SE,135,1.8,1.8,76,0.00,,,0.00,WUHU216HW,2013-03-20 17:59:00,
2013-03-20 19:04:00,41.0,34.3,29.68,SW,225,1.1,1.8,77,0.00,,,0.00,WUHU216HW,2013-03-20 18:04:00,
2013-03-20 19:09:00,41.2,34.5,29.68,West,270,1.8,1.8,77,0.00,,,0.00,WUHU216HW,2013-03-20 18:09:00,
2013-03-20 19:14:00,41.4,34.7,29.69,WSW,248,2.2,6.0,77,0.00,,,0.00,WUHU216HW,2013-03-20 18:14:00,
2013-03-20 19:19:00,41.6,34.8,29.69,SSW,203,1.8,6.0,77,0.00,,,0.00,WUHU216HW,2013-03-20 18:19:00,
2013-03-20 19:24:00,41.8,35.0,29.69,SW,225,0.7,2.5,77,0.00,,,0.00,WUHU216HW,2013-03-20 18:24:00,
2013-03-20 19:29:00,41.8,35.0,29.70,North,0,0.4,2.5,77,0.00,,,0.00,WUHU216HW,2013-03-20 18:29:00,
2013-03-20 19:34:00,41.8,35.0,29.70,SW,225,1.6,2.5,77,0.00,,,0.00,WUHU216HW,2013-03-20 18:34:00,
2013-03-20 19:39:00,41.8,35.6,29.71,WSW,248,4.5,4.5,79,0.00,,,0.00,WUHU216HW,2013-03-20 18:39:00,
2013-03-20 19:44:00,42.1,36.4,29.72,West,270,4.7,5.4,80,0.00,,,0.00,WUHU216HW,2013-03-20 18:44:00,
2013-03-20 19:49:00,42.3,36.8,29.72,WSW,248,4.7,6.0,81,0.00,,,0.00,WUHU216HW,2013-03-20 18:49:00,
2013-03-20 19:54:00,42.3,36.8,29.73,WSW,248,4.0,6.0,81,0.00,,,0.00,WUHU216HW,2013-03-20 18:54:00,
2013-03-20 19:59:00,42.3,36.8,29.73,West,270,5.4,6.3,81,0.00,,,0.00,WUHU216HW,2013-03-20 18:59:00,
2013-03-20 20:04:00,42.3,37.2,29.73,West,270,4.0,6.3,82,0.01,,,0.01,WUHU216HW,2013-03-20 19:04:00,
2013-03-20 20:09:00,42.3,37.2,29.73,West,270,4.0,6.3,82,0.01,,,0.01,WUHU216HW,2013-03-20 19:09:00,
2013-03-20 20:14:00,42.1,37.6,29.73,WSW,248,3.8,4.0,84,0.01,,,0.01,WUHU216HW,2013-03-20 19:14:00,
2013-03-20 20:19:00,41.9,37.5,29.74,NW,315,6.0,6.0,84,0.01,,,0.01,WUHU216HW,2013-03-20 19:19:00,
2013-03-20 20:24:00,41.9,37.7,29.74,WNW,293,4.0,6.0,85,0.01,,,0.01,WUHU216HW,2013-03-20 19:24:00,
2013-03-20 20:29:00,41.8,37.5,29.74,West,270,4.9,6.9,85,0.01,,,0.01,WUHU216HW,2013-03-20 19:29:00,
2013-03-20 20:34:00,41.4,37.4,29.74,West,270,5.1,6.9,86,0.01,,,0.01,WUHU216HW,2013-03-20 19:34:00,
2013-03-20 20:39:00,41.2,37.3,29.74,NW,315,4.7,5.1,86,0.01,,,0.01,WUHU216HW,2013-03-20 19:39:00,
2013-03-20 20:44:00,41.0,37.1,29.74,WNW,293,4.7,5.1,86,0.01,,,0.01,WUHU216HW,2013-03-20 19:44:00,
2013-03-20 20:49:00,41.0,37.1,29.74,WSW,248,4.0,5.4,86,0.01,,,0.01,WUHU216HW,2013-03-20 19:49:00,
2013-03-20 20:54:00,41.0,37.5,29.75,West,270,4.0,5.4,87,0.02,,,0.03,WUHU216HW,2013-03-20 19:54:00,
2013-03-20 20:59:00,40.7,37.1,29.75,WSW,248,6.0,6.3,87,0.02,,,0.03,WUHU216HW,2013-03-20 19:59:00,
2013-03-20 21:04:00,40.5,36.9,29.75,West,270,5.4,6.3,87,0.02,,,0.03,WUHU216HW,2013-03-20 20:04:00,
2013-03-20 21:09:00,40.3,36.7,29.75,WSW,248,5.6,5.6,87,0.02,,,0.03,WUHU216HW,2013-03-20 20:09:00,
2013-03-20 21:14:00,40.1,36.5,29.75,WSW,248,4.7,5.8,87,0.03,,,0.05,WUHU216HW,2013-03-20 20:14:00,
2013-03-20 21:19:00,40.0,36.4,29.75,WSW,248,4.0,5.8,87,0.03,,,0.05,WUHU216HW,2013-03-20 20:19:00,
2013-03-20 21:24:00,40.0,36.4,29.75,WSW,248,5.1,5.4,87,0.03,,,0.05,WUHU216HW,2013-03-20 20:24:00,
2013-03-20 21:29:00,40.0,36.4,29.74,SW,225,3.4,5.1,87,0.03,,,0.05,WUHU216HW,2013-03-20 20:29:00,
2013-03-20 21:34:00,40.0,36.1,29.75,WSW,248,2.9,5.1,86,0.03,,,0.05,WUHU216HW,2013-03-20 20:34:00,
2013-03-20 21:39:00,40.0,36.4,29.75,WSW,248,2.9,4.0,87,0.03,,,0.05,WUHU216HW,2013-03-20 20:39:00,
2013-03-20 21:44:00,39.8,35.9,29.75,WSW,248,4.0,4.0,86,0.03,,,0.05,WUHU216HW,2013-03-20 20:44:00,
2013-03-20 21:49:00,39.8,35.9,29.75,SW,225,1.3,4.0,86,0.02,,,0.05,WUHU216HW,2013-03-20 20:49:00,
2013-03-20 21:54:00,39.8,35.9,29.75,SW,225,2.5,4.0,86,0.02,,,0.05,WUHU216HW,2013-03-20 20:54:00,
2013-03-20 21:59:00,39.8,35.9,29.75,SSW,203,2.9,4.0,86,0.02,,,0.05,WUHU216HW,2013-03-20 20:59:00,
2013-03-20 22:04:00,39.6,35.7,29.75,SW,225,3.4,4.0,86,0.01,,,0.05,WUHU216HW,2013-03-20 21:04:00,
2013-03-20 22:09:00,39.6,35.7,29.75,SW,225,1.8,3.8,86,0.01,,,0.05,WUHU216HW,2013-03-20 21:09:00,
2013-03-20 22:14:00,39.6,35.7,29.75,SW,225,2.7,3.6,86,0.00,,,0.05,WUHU216HW,2013-03-20 21:14:00,
2013-03-20 22:19:00,39.6,35.7,29.75,WSW,248,2.5,3.1,86,0.00,,,0.05,WUHU216HW,2013-03-20 21:19:00,
2013-03-20 22:24:00,39.4,35.6,29.75,WSW,248,2.2,3.1,86,0.00,,,0.05,WUHU216HW,2013-03-20 21:24:00,
2013-03-20 22:29:00,39.4,35.6,29.75,SW,225,3.4,3.6,86,0.00,,,0.05,WUHU216HW,2013-03-20 21:29:00,
2013-03-20 22:34:00,39.2,35.4,29.75,SW,225,2.5,3.6,86,0.00,,,0.05,WUHU216HW,2013-03-20 21:34:00,
2013-03-20 22:40:00,39.2,35.4,29.75,SW,225,2.5,3.4,86,0.00,,,0.05,WUHU216HW,2013-03-20 21:40:00,
2013-03-20 22:45:00,39.2,35.4,29.76,SW,225,2.5,2.5,86,0.00,,,0.05,WUHU216HW,2013-03-20 21:45:00,
2013-03-20 22:50:00,38.7,34.6,29.76,SW,225,1.3,2.5,85,0.00,,,0.05,WUHU216HW,2013-03-20 21:50:00,
2013-03-20 22:55:00,38.7,34.6,29.75,WSW,248,1.1,2.5,85,0.00,,,0.05,WUHU216HW,2013-03-20 21:55:00,
2013-03-20 23:00:00,38.5,34.4,29.75,WNW,293,0.0,1.6,85,0.00,,,0.05,WUHU216HW,2013-03-20 22:00:00,
2013-03-20 23:05:00,38.0,33.8,29.75,NNE,23,0.4,1.1,85,0.00,,,0.05,WUHU216HW,2013-03-20 22:05:00,
2013-03-20 23:10:00,37.8,33.9,29.76,SW,225,1.3,1.3,86,0.00,,,0.05,WUHU216HW,2013-03-20 22:10:00,
2013-03-20 23:15:00,37.6,33.8,29.76,SW,225,2.0,2.0,86,0.00,,,0.05,WUHU216HW,2013-03-20 22:15:00,
2013-03-20 23:20:00,37.4,33.6,29.76,SW,225,1.8,2.5,86,0.00,,,0.05,WUHU216HW,2013-03-20 22:20:00,
2013-03-20 23:25:00,37.4,33.6,29.76,SW,225,1.6,2.5,86,0.00,,,0.05,WUHU216HW,2013-03-20 22:25:00,
2013-03-20 23:30:00,37.4,33.6,29.76,SW,225,1.8,2.2,86,0.00,,,0.05,WUHU216HW,2013-03-20 22:30:00,
2013-03-20 23:35:00,37.4,33.6,29.76,SW,225,2.5,2.5,86,0.00,,,0.05,WUHU216HW,2013-03-20 22:35:00,
2013-03-20 23:40:00,37.4,33.8,29.76,SW,225,2.0,3.4,87,0.00,,,0.05,WUHU216HW,2013-03-20 22:40:00,
2013-03-20 23:45:00,37.4,33.8,29.76,SW,225,2.7,3.4,87,0.00,,,0.05,WUHU216HW,2013-03-20 22:45:00,
2013-03-20 23:50:00,37.6,34.0,29.76,SW,225,2.9,3.4,87,0.00,,,0.05,WUHU216HW,2013-03-20 22:50:00,
2013-03-20 23:55:00,37.6,34.0,29.76,WSW,248,1.1,3.4,87,0.00,,,0.05,WUHU216HW,2013-03-20 22:55:00,